createdAt,value
2018-03-07T00:00:51.521Z,9.12
2018-03-07T00:02:05.327Z,9.14
2018-03-07T00:03:19.497Z,9.13
2018-03-07T00:04:33.296Z,9.11
2018-03-07T00:05:47.608Z,9.09
2018-03-07T00:07:01.940Z,9.09
2018-03-07T00:08:16.678Z,9.08
2018-03-07T00:09:31.239Z,9.1
2018-03-07T00:10:44.837Z,9.11
2018-03-07T00:11:59.154Z,9.09
2018-03-07T00:13:13.177Z,9.09
2018-03-07T00:14:27.299Z,9.1
2018-03-07T00:15:41.228Z,9.12
2018-03-07T00:16:55.544Z,9.13
2018-03-07T00:18:09.842Z,9.12
2018-03-07T00:19:24.164Z,9.12
2018-03-07T00:20:37.721Z,9.1
2018-03-07T00:21:52.269Z,9.09
2018-03-07T00:23:06.126Z,9.04
2018-03-07T00:24:20.205Z,9.02
2018-03-07T00:25:34.565Z,9.02
2018-03-07T00:26:48.393Z,9.02
2018-03-07T00:28:02.716Z,9.03
2018-03-07T00:29:17.312Z,9.03
2018-03-07T00:30:31.392Z,9.06
2018-03-07T00:31:45.484Z,9.05
2018-03-07T00:32:59.571Z,9.06
2018-03-07T00:34:14.348Z,9.07
2018-03-07T00:35:28.237Z,9.11
2018-03-07T00:36:42.719Z,9.1
2018-03-07T00:37:56.642Z,9.11
2018-03-07T00:39:10.473Z,9.12
2018-03-07T00:40:24.494Z,9.1
2018-03-07T00:41:38.831Z,9.11
2018-03-07T00:42:52.378Z,9.1
2018-03-07T00:44:06.636Z,9.08
2018-03-07T00:45:20.229Z,9.07
2018-03-07T00:46:34.569Z,9.07
2018-03-07T00:47:48.735Z,9.07
2018-03-07T00:57:58.891Z,9.01
2018-03-07T00:59:15.936Z,9.01
2018-03-07T01:00:32.389Z,9.05
2018-03-07T01:01:49.203Z,9.03
2018-03-07T01:03:07.465Z,9.06
2018-03-07T01:04:22.470Z,9.06
2018-03-07T01:05:37.730Z,9.03
2018-03-07T01:06:54.200Z,8.98
2018-03-07T01:08:09.803Z,8.99
2018-03-07T01:09:26.216Z,8.96
2018-03-07T01:10:40.375Z,8.96
2018-03-07T01:11:55.367Z,8.96
2018-03-07T01:13:10.737Z,8.96
2018-03-07T01:14:25.383Z,8.95
2018-03-07T01:15:40.040Z,8.95
2018-03-07T01:16:54.725Z,8.93
2018-03-07T01:18:09.397Z,8.93
2018-03-07T01:19:24.335Z,8.9
2018-03-07T01:20:38.731Z,8.89
2018-03-07T01:21:54.479Z,8.88
2018-03-07T01:23:09.598Z,8.87
2018-03-07T01:24:23.974Z,8.89
2018-03-07T01:25:38.360Z,8.87
2018-03-07T01:26:53.021Z,8.86
2018-03-07T01:28:07.492Z,8.85
2018-03-07T01:29:22.423Z,8.85
2018-03-07T01:30:36.276Z,8.84
2018-03-07T01:31:50.365Z,8.83
2018-03-07T01:33:04.640Z,8.82
2018-03-07T01:34:19.038Z,8.8
2018-03-07T01:35:33.735Z,8.77
2018-03-07T01:36:47.853Z,8.76
2018-03-07T01:38:01.861Z,8.73
2018-03-07T01:39:16.227Z,8.73
2018-03-07T01:40:30.699Z,8.71
2018-03-07T01:41:44.828Z,8.71
2018-03-07T01:43:00.195Z,8.7
2018-03-07T01:44:14.841Z,8.68
2018-03-07T01:45:29.214Z,8.67
2018-03-07T01:46:43.637Z,8.68
2018-03-07T01:47:58.384Z,8.68
2018-03-07T01:49:12.234Z,8.69
2018-03-07T01:50:26.821Z,8.66
2018-03-07T01:51:41.474Z,8.64
2018-03-07T01:52:56.992Z,8.62
2018-03-07T01:54:11.307Z,8.61
2018-03-07T01:55:25.888Z,8.59
2018-03-07T01:56:39.577Z,8.57
2018-03-07T01:57:54.281Z,8.54
2018-03-07T01:59:09.457Z,8.52
2018-03-07T02:00:23.863Z,8.52
2018-03-07T02:01:38.255Z,8.5
2018-03-07T02:02:53.109Z,8.49
2018-03-07T02:04:08.090Z,8.46
2018-03-07T02:05:23.513Z,8.44
2018-03-07T02:06:38.162Z,8.42
2018-03-07T02:07:53.070Z,8.41
2018-03-07T02:09:07.239Z,8.38
2018-03-07T02:10:21.843Z,8.36
2018-03-07T02:11:37.107Z,8.35
2018-03-07T02:12:51.968Z,8.35
2018-03-07T02:14:06.412Z,8.33
2018-03-07T02:15:21.246Z,8.34
2018-03-07T02:16:35.922Z,8.31
2018-03-07T02:17:50.884Z,8.31
2018-03-07T02:19:04.592Z,8.28
2018-03-07T02:20:18.964Z,8.27
2018-03-07T02:21:34.151Z,8.27
2018-03-07T02:22:48.563Z,8.24
2018-03-07T02:24:02.738Z,8.25
2018-03-07T02:25:17.447Z,8.25
2018-03-07T02:26:31.860Z,8.26
2018-03-07T02:27:46.789Z,8.28
2018-03-07T02:29:01.196Z,8.31
2018-03-07T02:30:16.006Z,8.33
2018-03-07T02:31:30.672Z,8.35
2018-03-07T02:32:44.539Z,8.35
2018-03-07T02:33:59.587Z,8.34
2018-03-07T02:35:13.871Z,8.33
2018-03-07T02:36:28.855Z,8.32
2018-03-07T02:37:42.963Z,8.31
2018-03-07T02:38:57.438Z,8.28
2018-03-07T02:40:12.218Z,8.27
2018-03-07T02:41:26.405Z,8.23
2018-03-07T02:42:40.830Z,8.22
2018-03-07T02:43:55.519Z,8.22
2018-03-07T02:45:09.677Z,8.22
2018-03-07T02:46:24.694Z,8.19
2018-03-07T02:47:39.846Z,8.2
2018-03-07T02:48:55.330Z,8.18
2018-03-07T02:50:10.061Z,8.17
2018-03-07T02:51:24.675Z,8.17
2018-03-07T02:52:39.101Z,8.17
2018-03-07T02:53:54.278Z,8.17
2018-03-07T02:55:09.552Z,8.17
2018-03-07T02:56:24.219Z,8.14
2018-03-07T02:57:39.148Z,8.11
2018-03-07T02:58:54.004Z,8.12
2018-03-07T03:00:09.088Z,8.11
2018-03-07T03:01:23.723Z,8.14
2018-03-07T03:02:37.855Z,8.11
2018-03-07T03:03:52.272Z,8.08
2018-03-07T03:05:06.131Z,8.06
2018-03-07T03:06:20.732Z,8.03
2018-03-07T03:07:35.179Z,8.02
2018-03-07T03:08:50.356Z,8.02
2018-03-07T03:10:04.967Z,8.03
2018-03-07T03:11:19.550Z,8.03
2018-03-07T03:12:34.601Z,8.04
2018-03-07T03:13:50.005Z,8.04
2018-03-07T03:15:04.659Z,8.05
2018-03-07T03:16:19.315Z,8.05
2018-03-07T03:17:33.440Z,8.05
2018-03-07T03:18:48.634Z,8.05
2018-03-07T03:20:02.787Z,8.05
2018-03-07T03:21:17.429Z,8.07
2018-03-07T03:22:31.763Z,8.1
2018-03-07T03:23:46.167Z,8.1
2018-03-07T03:25:00.601Z,8.08
2018-03-07T03:26:16.015Z,8.07
2018-03-07T03:27:30.319Z,8.05
2018-03-07T03:28:44.730Z,8.04
2018-03-07T03:29:59.346Z,8.03
2018-03-07T03:31:14.142Z,8.01
2018-03-07T03:32:29.110Z,7.97
2018-03-07T03:33:43.780Z,7.93
2018-03-07T03:34:57.914Z,7.91
2018-03-07T03:36:12.914Z,7.87
2018-03-07T03:37:27.505Z,7.82
2018-03-07T03:38:42.714Z,7.77
2018-03-07T03:39:57.367Z,7.73
2018-03-07T03:41:11.975Z,7.69
2018-03-07T03:42:26.353Z,7.62
2018-03-07T03:43:41.265Z,7.57
2018-03-07T03:44:55.909Z,7.52
2018-03-07T03:46:10.077Z,7.47
2018-03-07T03:47:25.122Z,7.41
2018-03-07T03:48:39.806Z,7.34
2018-03-07T03:49:53.913Z,7.29
2018-03-07T03:51:08.039Z,7.26
2018-03-07T03:52:22.545Z,7.24
2018-03-07T03:53:37.629Z,7.2
2018-03-07T03:54:52.254Z,7.16
2018-03-07T03:56:06.922Z,7.13
2018-03-07T03:57:21.448Z,7.1
2018-03-07T03:58:36.092Z,7.06
2018-03-07T03:59:50.232Z,7.04
2018-03-07T04:01:05.415Z,7
2018-03-07T04:02:19.943Z,6.98
2018-03-07T04:03:35.211Z,6.96
2018-03-07T04:04:49.308Z,6.95
2018-03-07T04:06:04.230Z,6.95
2018-03-07T04:07:18.769Z,6.94
2018-03-07T04:08:33.460Z,6.91
2018-03-07T04:09:48.702Z,6.88
2018-03-07T04:11:02.849Z,6.85
2018-03-07T04:12:17.408Z,6.81
2018-03-07T04:13:31.833Z,6.75
2018-03-07T04:14:46.486Z,6.7
2018-03-07T04:16:01.712Z,6.68
2018-03-07T04:17:16.635Z,6.65
2018-03-07T04:18:31.300Z,6.62
2018-03-07T04:19:45.944Z,6.6
2018-03-07T04:21:00.558Z,6.57
2018-03-07T04:22:15.895Z,6.56
2018-03-07T04:23:30.330Z,6.54
2018-03-07T04:24:44.688Z,6.52
2018-03-07T04:26:16.765Z,6.51
2018-03-07T04:27:32.005Z,6.48
2018-03-07T04:28:45.854Z,6.46
2018-03-07T04:30:00.366Z,6.44
2018-03-07T04:31:14.751Z,6.41
2018-03-07T04:32:29.164Z,6.38
2018-03-07T04:33:44.498Z,6.36
2018-03-07T04:34:59.577Z,6.35
2018-03-07T04:36:14.248Z,6.32
2018-03-07T04:37:29.156Z,6.31
2018-03-07T04:38:44.236Z,6.3
2018-03-07T04:39:59.247Z,6.3
2018-03-07T04:41:13.371Z,6.32
2018-03-07T04:42:27.776Z,6.31
2018-03-07T04:43:42.771Z,6.32
2018-03-07T04:44:57.470Z,6.3
2018-03-07T04:46:12.140Z,6.32
2018-03-07T04:47:26.823Z,6.31
2018-03-07T04:48:41.311Z,6.27
2018-03-07T04:49:56.272Z,6.21
2018-03-07T04:51:10.911Z,6.17
2018-03-07T04:52:25.654Z,6.11
2018-03-07T04:53:40.462Z,6.05
2018-03-07T04:54:54.615Z,5.99
2018-03-07T04:56:09.012Z,5.95
2018-03-07T04:57:23.938Z,5.91
2018-03-07T04:59:01.406Z,5.87
2018-03-07T05:00:15.806Z,5.84
2018-03-07T05:01:29.958Z,5.84
2018-03-07T05:02:44.705Z,5.82
2018-03-07T05:03:59.489Z,5.8
2018-03-07T05:05:14.508Z,5.79
2018-03-07T05:06:29.154Z,5.77
2018-03-07T05:07:43.892Z,5.77
2018-03-07T05:08:58.252Z,5.78
2018-03-07T05:10:12.391Z,5.77
2018-03-07T05:11:27.339Z,5.76
2018-03-07T05:12:41.987Z,5.7
2018-03-07T05:13:56.903Z,5.7
2018-03-07T05:15:11.896Z,5.68
2018-03-07T05:16:25.815Z,5.66
2018-03-07T05:17:40.536Z,5.67
2018-03-07T05:18:54.999Z,5.66
2018-03-07T05:20:09.621Z,5.66
2018-03-07T05:21:23.784Z,5.65
2018-03-07T05:22:38.763Z,5.64
2018-03-07T05:23:52.962Z,5.62
2018-03-07T05:25:06.790Z,5.61
2018-03-07T05:26:21.018Z,5.59
2018-03-07T05:27:35.405Z,5.57
2018-03-07T05:28:49.984Z,5.54
2018-03-07T05:30:04.703Z,5.5
2018-03-07T05:31:56.187Z,5.43
2018-03-07T05:33:10.777Z,5.42
2018-03-07T05:34:24.922Z,5.41
2018-03-07T05:35:38.780Z,5.38
2018-03-07T05:36:53.156Z,5.32
2018-03-07T05:38:06.826Z,5.29
2018-03-07T05:39:22.263Z,5.23
2018-03-07T05:40:36.376Z,5.2
2018-03-07T05:41:51.015Z,5.13
2018-03-07T05:43:05.400Z,5.13
2018-03-07T05:44:20.523Z,5.09
2018-03-07T05:45:35.029Z,5.06
2018-03-07T05:46:50.350Z,5.04
2018-03-07T05:48:04.797Z,5.03
2018-03-07T05:49:18.926Z,5.01
2018-03-07T05:50:34.320Z,4.98
2018-03-07T05:51:49.572Z,4.95
2018-03-07T05:53:04.253Z,4.93
2018-03-07T05:54:19.054Z,4.89
2018-03-07T05:55:33.700Z,4.85
2018-03-07T05:56:48.089Z,4.84
2018-03-07T05:58:03.052Z,4.81
2018-03-07T05:59:17.786Z,4.81
2018-03-07T06:00:31.918Z,4.82
2018-03-07T06:01:46.610Z,4.86
2018-03-07T06:03:01.447Z,4.88
2018-03-07T06:04:16.304Z,4.92
2018-03-07T06:05:30.999Z,4.97
2018-03-07T06:06:45.403Z,5
2018-03-07T06:08:00.395Z,5.09
2018-03-07T06:09:14.968Z,5.13
2018-03-07T06:10:29.924Z,5.2
2018-03-07T06:11:44.358Z,5.25
2018-03-07T06:12:59.063Z,5.28
2018-03-07T06:14:14.292Z,5.33
2018-03-07T06:15:28.488Z,5.41
2018-03-07T06:16:42.934Z,5.47
2018-03-07T06:17:57.063Z,5.47
2018-03-07T06:19:11.744Z,5.49
2018-03-07T06:20:25.940Z,5.49
2018-03-07T06:21:40.652Z,5.52
2018-03-07T06:22:55.879Z,5.54
2018-03-07T06:24:10.006Z,5.56
2018-03-07T06:25:24.383Z,5.6
2018-03-07T06:26:39.297Z,5.63
2018-03-07T06:27:53.961Z,5.68
2018-03-07T06:29:08.410Z,5.75
2018-03-07T06:30:23.438Z,5.81
2018-03-07T06:31:37.300Z,5.86
2018-03-07T06:32:51.448Z,5.94
2018-03-07T06:34:06.009Z,6.01
2018-03-07T06:35:21.061Z,6.1
2018-03-07T06:36:35.725Z,6.19
2018-03-07T06:37:50.324Z,6.26
2018-03-07T06:39:05.010Z,6.34
2018-03-07T06:40:21.207Z,6.41
2018-03-07T06:41:36.190Z,6.48
2018-03-07T06:42:50.863Z,6.56
2018-03-07T06:44:05.441Z,6.59
2018-03-07T06:45:20.254Z,6.61
2018-03-07T06:46:35.208Z,6.64
2018-03-07T06:47:50.187Z,6.66
2018-03-07T06:49:04.313Z,6.69
2018-03-07T06:50:19.594Z,6.72
2018-03-07T06:51:35.113Z,6.75
2018-03-07T06:52:49.404Z,6.81
2018-03-07T06:54:04.467Z,6.82
2018-03-07T06:55:18.978Z,6.82
2018-03-07T06:56:33.399Z,6.82
2018-03-07T06:57:47.551Z,6.81
2018-03-07T06:59:02.241Z,6.8
2018-03-07T07:00:17.972Z,6.82
2018-03-07T07:01:32.419Z,6.85
2018-03-07T07:02:47.098Z,6.85
2018-03-07T07:04:01.213Z,6.84
2018-03-07T07:05:15.655Z,6.88
2018-03-07T07:06:30.918Z,6.91
2018-03-07T07:07:45.077Z,6.94
2018-03-07T07:08:59.782Z,6.96
2018-03-07T07:10:25.464Z,6.96
2018-03-07T07:11:39.957Z,6.98
2018-03-07T07:12:54.641Z,6.98
2018-03-07T07:14:09.324Z,7
2018-03-07T07:15:23.789Z,7.04
2018-03-07T07:16:38.500Z,7.07
2018-03-07T07:17:52.783Z,7.1
2018-03-07T07:19:06.968Z,7.1
2018-03-07T07:20:22.024Z,7.11
2018-03-07T07:21:36.269Z,7.15
2018-03-07T07:22:50.592Z,7.16
2018-03-07T07:24:05.498Z,7.16
2018-03-07T07:25:20.153Z,7.21
2018-03-07T07:26:34.682Z,7.22
2018-03-07T07:27:49.108Z,7.24
2018-03-07T07:29:03.518Z,7.27
2018-03-07T07:30:17.640Z,7.27
2018-03-07T07:31:31.870Z,7.28
2018-03-07T07:32:46.139Z,7.31
2018-03-07T07:34:01.083Z,7.29
2018-03-07T07:35:15.538Z,7.26
2018-03-07T07:36:30.012Z,7.23
2018-03-07T07:37:44.118Z,7.18
2018-03-07T07:38:58.321Z,7.15
2018-03-07T07:40:12.728Z,7.14
2018-03-07T07:41:27.502Z,7.17
2018-03-07T07:42:42.669Z,7.19
2018-03-07T07:43:57.327Z,7.24
2018-03-07T07:45:11.469Z,7.3
2018-03-07T07:46:25.651Z,7.33
2018-03-07T07:47:40.635Z,7.36
2018-03-07T07:48:55.052Z,7.38
2018-03-07T07:50:09.944Z,7.4
2018-03-07T07:51:25.128Z,7.4
2018-03-07T07:52:40.044Z,7.42
2018-03-07T07:53:54.551Z,7.44
2018-03-07T07:55:08.694Z,7.47
2018-03-07T07:56:23.147Z,7.51
2018-03-07T07:57:37.472Z,7.53
2018-03-07T07:58:51.793Z,7.57
2018-03-07T08:00:06.817Z,7.61
2018-03-07T08:01:21.264Z,7.66
2018-03-07T08:02:36.047Z,7.68
2018-03-07T08:03:50.745Z,7.69
2018-03-07T08:05:04.882Z,7.79
2018-03-07T08:06:19.559Z,7.88
2018-03-07T08:07:34.674Z,7.98
2018-03-07T08:08:49.075Z,8.08
2018-03-07T08:10:04.216Z,8.22
2018-03-07T08:11:19.145Z,8.32
2018-03-07T08:12:33.972Z,8.43
2018-03-07T08:13:48.915Z,8.5
2018-03-07T08:15:19.368Z,8.51
2018-03-07T08:16:34.508Z,8.52
2018-03-07T08:17:49.493Z,8.54
2018-03-07T08:19:04.410Z,8.55
2018-03-07T08:20:18.547Z,8.58
2018-03-07T08:21:33.775Z,8.62
2018-03-07T08:22:47.671Z,8.67
2018-03-07T08:24:02.359Z,8.71
2018-03-07T08:25:17.870Z,8.76
2018-03-07T08:26:32.362Z,8.76
2018-03-07T08:27:46.595Z,8.77
2018-03-07T08:29:00.758Z,8.76
2018-03-07T08:30:15.189Z,8.77
2018-03-07T08:31:29.377Z,8.75
2018-03-07T08:32:43.978Z,8.71
2018-03-07T08:33:58.662Z,8.67
2018-03-07T08:35:13.102Z,8.65
2018-03-07T08:36:28.080Z,8.62
2018-03-07T08:37:43.189Z,8.59
2018-03-07T08:38:58.363Z,8.6
2018-03-07T08:40:12.842Z,8.57
2018-03-07T08:41:27.563Z,8.56
2018-03-07T08:42:42.594Z,8.56
2018-03-07T08:43:57.562Z,8.55
2018-03-07T08:45:12.017Z,8.56
2018-03-07T08:46:26.173Z,8.6
2018-03-07T08:47:41.393Z,8.61
2018-03-07T08:48:56.704Z,8.62
2018-03-07T08:50:11.385Z,8.61
2018-03-07T08:51:26.352Z,8.65
2018-03-07T08:52:40.790Z,8.68
2018-03-07T08:53:55.228Z,8.72
2018-03-07T08:55:09.648Z,8.76
2018-03-07T08:56:24.317Z,8.76
2018-03-07T08:57:38.301Z,8.73
2018-03-07T08:58:52.413Z,8.77
2018-03-07T09:00:06.845Z,8.79
2018-03-07T09:01:21.506Z,8.8
2018-03-07T09:02:36.097Z,8.82
2018-03-07T09:03:50.830Z,8.85
2018-03-07T09:05:05.232Z,8.84
2018-03-07T09:06:19.091Z,8.86
2018-03-07T09:07:33.016Z,8.87
2018-03-07T09:08:48.228Z,8.86
2018-03-07T09:10:02.547Z,8.87
2018-03-07T09:11:17.791Z,8.88
2018-03-07T09:12:33.045Z,8.9
2018-03-07T09:13:47.658Z,8.92
2018-03-07T09:15:01.550Z,8.96
2018-03-07T09:16:15.459Z,9.04
2018-03-07T09:17:30.385Z,9.14
2018-03-07T09:18:45.722Z,9.28
2018-03-07T09:19:59.804Z,9.45
2018-03-07T09:21:14.383Z,9.63
2018-03-07T09:22:35.309Z,9.89
2018-03-07T09:23:50.777Z,10.09
2018-03-07T09:25:06.000Z,10.25
2018-03-07T09:26:20.949Z,10.41
2018-03-07T09:27:36.429Z,10.54
2018-03-07T09:28:51.386Z,10.64
2018-03-07T09:30:06.189Z,10.74
2018-03-07T09:31:20.946Z,10.81
2018-03-07T09:32:35.080Z,10.87
2018-03-07T09:33:49.685Z,10.93
2018-03-07T09:35:04.373Z,10.98
2018-03-07T09:36:18.503Z,11.01
2018-03-07T09:37:33.203Z,11.04
2018-03-07T09:38:47.329Z,11.04
2018-03-07T09:40:01.718Z,11.12
2018-03-07T09:41:15.844Z,11.17
2018-03-07T09:42:30.263Z,11.23
2018-03-07T09:43:45.382Z,11.27
2018-03-07T09:44:59.820Z,11.32
2018-03-07T09:46:14.222Z,11.31
2018-03-07T09:47:29.157Z,11.29
2018-03-07T09:48:43.938Z,11.35
2018-03-07T09:49:59.233Z,11.42
2018-03-07T09:51:13.639Z,11.46
2018-03-07T09:52:28.386Z,11.45
2018-03-07T09:53:42.514Z,11.52
2018-03-07T09:54:57.617Z,11.6
2018-03-07T09:56:12.721Z,11.74
2018-03-07T09:57:28.016Z,11.9
2018-03-07T09:58:42.457Z,12.03
2018-03-07T09:59:57.275Z,12.09
2018-03-07T10:01:11.950Z,12.12
2018-03-07T10:02:26.858Z,12.19
2018-03-07T10:03:41.797Z,12.26
2018-03-07T10:04:57.176Z,12.31
2018-03-07T10:06:11.068Z,12.33
2018-03-07T10:07:26.429Z,12.37
2018-03-07T10:08:41.698Z,12.44
2018-03-07T10:09:56.740Z,12.46
2018-03-07T10:11:11.149Z,12.47
2018-03-07T10:12:25.868Z,12.47
2018-03-07T10:13:40.565Z,12.48
2018-03-07T10:14:55.653Z,12.43
2018-03-07T10:16:10.437Z,12.41
2018-03-07T10:17:24.871Z,12.34
2018-03-07T10:18:39.290Z,12.29
2018-03-07T10:19:53.860Z,12.26
2018-03-07T10:21:08.856Z,12.3
2018-03-07T10:22:23.274Z,12.3
2018-03-07T10:23:38.440Z,12.4
2018-03-07T10:24:53.154Z,12.51
2018-03-07T10:26:07.971Z,12.65
2018-03-07T10:27:22.911Z,12.86
2018-03-07T10:28:37.441Z,12.95
2018-03-07T10:29:51.902Z,13.02
2018-03-07T10:31:06.779Z,13.04
2018-03-07T10:32:21.849Z,13.07
2018-03-07T10:33:36.017Z,13.1
2018-03-07T10:34:50.986Z,13.09
2018-03-07T10:36:05.495Z,13.06
2018-03-07T10:37:19.678Z,13.11
2018-03-07T10:38:34.372Z,13.09
2018-03-07T10:39:49.313Z,13.07
2018-03-07T10:41:04.217Z,13
2018-03-07T10:42:18.888Z,12.92
2018-03-07T10:43:32.772Z,12.73
2018-03-07T10:44:48.170Z,12.55
2018-03-07T10:46:03.420Z,12.47
2018-03-07T10:47:18.125Z,12.3
2018-03-07T10:48:32.260Z,12.21
2018-03-07T10:49:46.676Z,12.13
2018-03-07T10:51:01.314Z,12.11
2018-03-07T10:52:16.303Z,12.09
2018-03-07T10:53:31.511Z,12.11
2018-03-07T10:54:46.226Z,12.08
2018-03-07T10:56:01.086Z,12.07
2018-03-07T10:57:15.964Z,12
2018-03-07T10:58:31.299Z,11.88
2018-03-07T10:59:46.724Z,11.79
2018-03-07T11:01:01.286Z,11.68
2018-03-07T11:02:15.416Z,11.61
2018-03-07T11:03:32.008Z,11.57
2018-03-07T11:04:46.864Z,11.56
2018-03-07T11:06:02.281Z,11.52
2018-03-07T11:07:16.691Z,11.5
2018-03-07T11:08:31.406Z,11.57
2018-03-07T11:09:45.836Z,11.63
2018-03-07T11:11:00.775Z,11.7
2018-03-07T11:12:14.929Z,11.8
2018-03-07T11:13:29.905Z,11.88
2018-03-07T11:14:44.856Z,11.96
2018-03-07T11:15:59.285Z,12.05
2018-03-07T11:17:14.609Z,12.12
2018-03-07T11:18:29.060Z,12.17
2018-03-07T11:19:43.454Z,12.21
2018-03-07T11:20:58.145Z,12.28
2018-03-07T11:22:12.796Z,12.36
2018-03-07T11:23:27.514Z,12.43
2018-03-07T11:24:41.680Z,12.5
2018-03-07T11:25:56.804Z,12.61
2018-03-07T11:27:11.585Z,12.68
2018-03-07T11:28:26.002Z,12.74
2018-03-07T11:29:41.079Z,12.82
2018-03-07T11:30:55.941Z,12.9
2018-03-07T11:32:10.497Z,12.9
2018-03-07T11:33:25.186Z,12.87
2018-03-07T11:34:39.942Z,12.84
2018-03-07T11:35:54.371Z,12.79
2018-03-07T11:37:09.777Z,12.71
2018-03-07T11:38:23.926Z,12.7
2018-03-07T11:39:38.839Z,12.71
2018-03-07T11:40:53.283Z,12.74
2018-03-07T11:42:08.188Z,12.77
2018-03-07T11:43:22.323Z,12.83
2018-03-07T11:44:36.515Z,12.89
2018-03-07T11:45:51.392Z,12.97
2018-03-07T11:47:05.576Z,12.99
2018-03-07T11:48:20.262Z,12.96
2018-03-07T11:49:34.707Z,12.93
2018-03-07T11:50:49.093Z,12.89
2018-03-07T11:52:03.501Z,12.89
2018-03-07T11:53:18.566Z,12.91
2018-03-07T11:54:33.023Z,12.89
2018-03-07T11:55:47.707Z,12.93
2018-03-07T11:57:02.383Z,12.93
2018-03-07T11:58:17.198Z,12.91
2018-03-07T11:59:31.370Z,12.86
2018-03-07T12:00:46.373Z,12.84
2018-03-07T12:02:00.539Z,12.75
2018-03-07T12:03:15.555Z,12.69
2018-03-07T12:04:30.761Z,12.69
2018-03-07T12:05:45.988Z,12.66
2018-03-07T12:07:01.205Z,12.62
2018-03-07T12:08:15.738Z,12.58
2018-03-07T12:09:30.121Z,12.58
2018-03-07T12:10:44.331Z,12.62
2018-03-07T12:11:58.518Z,12.67
2018-03-07T12:13:13.704Z,12.79
2018-03-07T12:14:28.410Z,12.83
2018-03-07T12:15:43.297Z,12.79
2018-03-07T12:16:58.274Z,12.8
2018-03-07T12:18:12.917Z,12.88
2018-03-07T12:19:28.163Z,12.98
2018-03-07T12:20:42.626Z,12.95
2018-03-07T12:21:58.040Z,12.88
2018-03-07T12:23:13.156Z,12.82
2018-03-07T12:24:28.124Z,12.75
2018-03-07T12:25:42.566Z,12.65
2018-03-07T12:26:56.747Z,12.49
2018-03-07T12:28:10.629Z,12.37
2018-03-07T12:29:25.404Z,12.3
2018-03-07T12:30:40.105Z,12.22
2018-03-07T12:31:54.532Z,12.2
2018-03-07T12:33:09.250Z,12.2
2018-03-07T12:34:24.000Z,12.2
2018-03-07T12:35:39.031Z,12.19
2018-03-07T12:37:14.206Z,12.16
2018-03-07T12:38:30.077Z,12.18
2018-03-07T12:39:44.270Z,12.16
2018-03-07T12:40:58.704Z,12.2
2018-03-07T12:42:12.600Z,12.29
2018-03-07T12:43:27.863Z,12.36
2018-03-07T12:44:41.821Z,12.43
2018-03-07T12:45:56.812Z,12.47
2018-03-07T12:47:11.585Z,12.54
2018-03-07T12:48:26.049Z,12.56
2018-03-07T12:49:41.414Z,12.6
2018-03-07T12:50:56.399Z,12.59
2018-03-07T12:52:11.330Z,12.55
2018-03-07T12:53:25.505Z,12.53
2018-03-07T12:54:40.072Z,12.51
2018-03-07T12:55:55.057Z,12.49
2018-03-07T12:57:10.219Z,12.47
2018-03-07T12:58:24.418Z,12.43
2018-03-07T12:59:39.609Z,12.34
2018-03-07T13:00:53.829Z,12.33
2018-03-07T13:02:08.600Z,12.37
2018-03-07T13:03:23.017Z,12.4
2018-03-07T13:04:37.392Z,12.45
2018-03-07T13:05:51.842Z,12.46
2018-03-07T13:07:06.223Z,12.42
2018-03-07T13:08:21.992Z,12.41
2018-03-07T13:09:54.725Z,12.36
2018-03-07T13:11:09.696Z,12.33
2018-03-07T13:12:24.110Z,12.29
2018-03-07T13:13:38.626Z,12.19
2018-03-07T13:14:53.269Z,12.1
2018-03-07T13:16:13.706Z,12.06
2018-03-07T13:17:29.089Z,12
2018-03-07T13:18:43.722Z,11.99
2018-03-07T13:19:59.020Z,12
2018-03-07T13:21:13.896Z,12.02
2018-03-07T13:22:28.576Z,12.07
2018-03-07T13:23:43.182Z,12.15
2018-03-07T13:24:57.310Z,12.23
2018-03-07T13:26:11.749Z,12.31
2018-03-07T13:27:26.947Z,12.39
2018-03-07T13:28:41.397Z,12.49
2018-03-07T13:29:56.657Z,12.58
2018-03-07T13:31:11.381Z,12.63
2018-03-07T13:32:26.335Z,12.72
2018-03-07T13:33:40.675Z,12.8
2018-03-07T13:34:54.946Z,12.92
2018-03-07T13:36:09.408Z,13
2018-03-07T13:37:24.353Z,13.05
2018-03-07T13:38:38.481Z,13.03
2018-03-07T13:39:53.095Z,13.06
2018-03-07T13:41:07.243Z,13
2018-03-07T13:42:53.155Z,12.89
2018-03-07T13:44:07.744Z,12.83
2018-03-07T13:45:22.688Z,12.79
2018-03-07T13:46:37.417Z,12.73
2018-03-07T13:47:51.599Z,12.63
2018-03-07T13:49:07.074Z,12.53
2018-03-07T13:50:22.497Z,12.4
2018-03-07T13:51:37.257Z,12.28
2018-03-07T13:52:51.680Z,12.18
2018-03-07T13:54:05.872Z,12.08
2018-03-07T13:55:20.812Z,12.01
2018-03-07T13:56:35.560Z,11.98
2018-03-07T13:57:50.433Z,11.96
2018-03-07T13:59:04.928Z,11.96
2018-03-07T14:00:19.326Z,11.92
2018-03-07T14:01:34.001Z,11.89
2018-03-07T14:02:48.484Z,11.91
2018-03-07T14:04:02.612Z,11.92
2018-03-07T14:05:17.635Z,11.89
2018-03-07T14:06:32.368Z,11.91
2018-03-07T14:07:46.800Z,11.89
2018-03-07T14:09:00.971Z,11.9
2018-03-07T14:10:15.592Z,11.91
2018-03-07T14:11:29.752Z,11.96
2018-03-07T14:12:44.677Z,12.02
2018-03-07T14:13:58.828Z,12.13
2018-03-07T14:15:14.392Z,12.25
2018-03-07T14:16:28.512Z,12.36
2018-03-07T14:17:42.669Z,12.51
2018-03-07T14:18:56.959Z,12.61
2018-03-07T14:20:12.099Z,12.66
2018-03-07T14:21:27.079Z,12.72
2018-03-07T14:22:41.742Z,12.87
2018-03-07T14:23:56.427Z,13.01
2018-03-07T14:25:10.740Z,13.15
2018-03-07T14:26:25.446Z,13.29
2018-03-07T14:27:39.978Z,13.4
2018-03-07T14:28:54.785Z,13.51
2018-03-07T14:30:08.934Z,13.58
2018-03-07T14:31:23.986Z,13.62
2018-03-07T14:32:38.664Z,13.62
2018-03-07T14:33:53.375Z,13.62
2018-03-07T14:35:07.586Z,13.57
2018-03-07T14:36:22.764Z,13.55
2018-03-07T14:37:37.729Z,13.51
2018-03-07T14:38:52.385Z,13.48
2018-03-07T14:40:07.113Z,13.47
2018-03-07T14:41:21.630Z,13.46
2018-03-07T14:42:35.827Z,13.45
2018-03-07T14:43:50.679Z,13.44
2018-03-07T14:45:05.104Z,13.39
2018-03-07T14:46:19.652Z,13.34
2018-03-07T14:47:33.801Z,13.29
2018-03-07T14:49:03.813Z,13.27
2018-03-07T14:50:18.324Z,13.22
2018-03-07T14:51:33.026Z,13.17
2018-03-07T14:52:46.870Z,13.08
2018-03-07T14:54:01.278Z,13.08
2018-03-07T14:55:15.987Z,13.04
2018-03-07T14:56:31.163Z,12.96
2018-03-07T14:57:45.850Z,12.87
2018-03-07T14:59:00.259Z,12.77
2018-03-07T15:00:15.031Z,12.7
2018-03-07T15:01:30.024Z,12.63
2018-03-07T15:02:44.492Z,12.6
2018-03-07T15:03:58.914Z,12.56
2018-03-07T15:05:13.324Z,12.54
2018-03-07T15:06:27.916Z,12.53
2018-03-07T15:07:42.350Z,12.52
2018-03-07T15:08:57.609Z,12.53
2018-03-07T15:10:12.582Z,12.58
2018-03-07T15:11:26.391Z,12.58
2018-03-07T15:12:40.583Z,12.58
2018-03-07T15:13:54.522Z,12.56
2018-03-07T15:15:09.508Z,12.56
2018-03-07T15:16:24.359Z,12.6
2018-03-07T15:17:38.806Z,12.67
2018-03-07T15:18:53.213Z,12.71
2018-03-07T15:20:07.895Z,12.72
2018-03-07T15:21:52.240Z,12.72
2018-03-07T15:23:07.111Z,12.71
2018-03-07T15:24:22.021Z,12.64
2018-03-07T15:25:36.984Z,12.59
2018-03-07T15:26:51.998Z,12.51
2018-03-07T15:28:06.407Z,12.45
2018-03-07T15:29:21.387Z,12.37
2018-03-07T15:30:35.786Z,12.34
2018-03-07T15:31:50.394Z,12.31
2018-03-07T15:33:04.577Z,12.31
2018-03-07T15:34:19.241Z,12.29
2018-03-07T15:35:33.984Z,12.29
2018-03-07T15:36:48.665Z,12.26
2018-03-07T15:38:03.868Z,12.27
2018-03-07T15:39:18.285Z,12.26
2018-03-07T15:40:32.750Z,12.25
2018-03-07T15:41:47.997Z,12.25
2018-03-07T15:43:03.149Z,12.2
2018-03-07T15:44:17.302Z,12.18
2018-03-07T15:45:32.484Z,12.18
2018-03-07T15:46:46.943Z,12.15
2018-03-07T15:48:01.888Z,12.14
2018-03-07T15:49:16.539Z,12.11
2018-03-07T15:50:31.207Z,12.12
2018-03-07T15:51:45.832Z,12.12
2018-03-07T15:53:00.454Z,12.04
2018-03-07T15:54:15.446Z,11.99
2018-03-07T15:55:29.619Z,11.93
2018-03-07T15:56:44.551Z,11.9
2018-03-07T15:57:59.414Z,11.88
2018-03-07T15:59:13.594Z,11.87
2018-03-07T16:00:28.049Z,11.92
2018-03-07T16:01:42.772Z,11.96
2018-03-07T16:02:57.321Z,11.98
2018-03-07T16:04:11.495Z,11.97
2018-03-07T16:05:26.409Z,11.95
2018-03-07T16:06:41.361Z,11.96
2018-03-07T16:07:55.779Z,11.96
2018-03-07T16:09:09.650Z,12.01
2018-03-07T16:10:24.080Z,12.06
2018-03-07T16:11:38.269Z,12.09
2018-03-07T16:12:52.447Z,12.12
2018-03-07T16:14:07.426Z,12.09
2018-03-07T16:15:21.779Z,12.08
2018-03-07T16:16:36.732Z,12.1
2018-03-07T16:17:51.674Z,12.12
2018-03-07T16:19:06.645Z,12.09
2018-03-07T16:20:21.338Z,12.11
2018-03-07T16:21:36.067Z,12.09
2018-03-07T16:22:51.004Z,12.07
2018-03-07T16:24:06.138Z,12.03
2018-03-07T16:25:21.454Z,11.99
2018-03-07T16:26:36.848Z,11.97
2018-03-07T16:27:51.277Z,11.98
2018-03-07T16:29:06.584Z,11.98
2018-03-07T16:30:20.777Z,12.02
2018-03-07T16:31:36.037Z,12
2018-03-07T16:32:51.139Z,11.97
2018-03-07T16:34:05.715Z,11.96
2018-03-07T16:35:21.110Z,12
2018-03-07T16:36:35.367Z,11.98